Time;durP1;ratioP1;P1;durP2;ratioP2;P2;SDS_P1;SDS_P2;PMS_P1;PMS_P2;Temp;Humidity;BMP_temperature;BMP_pressure;BME280_temperature;BME280_humidity;BME280_pressure;Samples;Min_cycle;Max_cycle;Signal;HPM_P1;HPM_P2
2023/08/28 00:02:09;;;;;;;0.90;0.40;;;14.50;99.90;;;;;;5137475;27;20047;-39
2023/08/28 00:04:35;;;;;;;1.95;0.60;;;14.50;99.90;;;;;;5137665;27;20093;-39
2023/08/28 00:07:01;;;;;;;1.75;0.60;;;14.50;99.90;;;;;;5119535;27;20499;-39
2023/08/28 00:09:26;;;;;;;1.92;0.60;;;14.50;99.90;;;;;;5137644;27;20039;-39
2023/08/28 00:11:54;;;;;;;2.40;0.80;;;14.40;99.90;;;;;;5137569;27;20407;-39
2023/08/28 00:14:20;;;;;;;6.03;0.70;;;14.40;99.90;;;;;;5137769;27;20065;-40
2023/08/28 00:16:46;;;;;;;1.15;0.50;;;14.40;99.90;;;;;;5136167;27;20043;-39
2023/08/28 00:19:12;;;;;;;2.13;0.70;;;14.40;99.90;;;;;;5137204;27;20050;-40
2023/08/28 00:21:38;;;;;;;3.67;0.63;;;14.40;99.90;;;;;;5137120;27;20051;-40
2023/08/28 00:24:05;;;;;;;0.75;0.50;;;14.40;99.90;;;;;;5137336;27;20047;-39
2023/08/28 00:26:30;;;;;;;1.73;0.70;;;14.30;99.90;;;;;;5137513;27;20399;-39
2023/08/28 00:28:56;;;;;;;2.15;0.60;;;14.40;99.90;;;;;;5137388;27;20047;-39
2023/08/28 00:31:22;;;;;;;2.90;0.70;;;14.30;99.90;;;;;;5118998;27;20043;-39
2023/08/28 00:33:48;;;;;;;0.90;0.40;;;14.30;99.90;;;;;;5118875;27;20135;-40
2023/08/28 00:36:15;;;;;;;2.05;0.70;;;14.30;99.90;;;;;;5137325;27;20069;-39
2023/08/28 00:38:42;;;;;;;1.63;0.60;;;14.30;99.90;;;;;;5136882;27;20553;-39
2023/08/28 00:41:07;;;;;;;1.30;0.50;;;14.30;99.90;;;;;;5137324;27;20404;-39
2023/08/28 00:43:33;;;;;;;1.93;0.60;;;14.30;99.90;;;;;;5136997;27;20057;-39
2023/08/28 00:46:00;;;;;;;2.28;0.60;;;14.30;99.90;;;;;;5119021;27;20779;-39
2023/08/28 00:48:28;;;;;;;2.50;0.68;;;14.20;99.90;;;;;;5136354;27;20043;-39
2023/08/28 00:50:53;;;;;;;2.55;0.70;;;14.30;99.90;;;;;;5136863;27;20107;-39
2023/08/28 00:53:20;;;;;;;2.22;0.60;;;14.30;99.90;;;;;;5136827;27;20125;-39
2023/08/28 00:55:46;;;;;;;1.77;0.75;;;14.30;99.90;;;;;;5136772;27;20079;-40
2023/08/28 00:58:12;;;;;;;1.38;0.57;;;14.30;99.90;;;;;;5118296;27;20429;-39
2023/08/28 01:00:38;;;;;;;;;;;14.30;99.90;;;;;;5118856;27;20043;-40
2023/08/28 01:03:04;;;;;;;1.30;0.50;;;14.30;99.90;;;;;;5118513;27;19926;-39
2023/08/28 01:05:57;;;;;;;0.97;0.50;;;14.30;99.90;;;;;;5118322;27;20078;-39
2023/08/28 01:08:56;;;;;;;1.67;0.68;;;14.30;99.90;;;;;;5136678;27;20196;-39
2023/08/28 01:12:06;;;;;;;1.02;0.50;;;14.20;99.90;;;;;;5136201;27;20050;-39
2023/08/28 01:14:42;;;;;;;0.90;0.50;;;14.30;99.90;;;;;;5072972;28;20048;-39
2023/08/28 01:17:11;;;;;;;1.80;0.57;;;14.30;99.90;;;;;;5131175;27;20407;-39
2023/08/28 01:19:40;;;;;;;1.02;0.60;;;14.30;99.90;;;;;;5136071;27;20043;-39
2023/08/28 01:22:11;;;;;;;1.02;0.55;;;14.20;99.90;;;;;;5135967;27;20047;-39
2023/08/28 01:24:45;;;;;;;1.85;0.70;;;14.30;99.90;;;;;;5136146;27;20051;-39
2023/08/28 01:27:12;;;;;;;2.38;0.65;;;14.30;99.90;;;;;;5135972;27;20043;-39
2023/08/28 01:29:38;;;;;;;2.05;0.68;;;14.30;99.90;;;;;;5135957;27;20050;-39
2023/08/28 01:32:04;;;;;;;2.38;1.15;;;14.30;99.90;;;;;;5135982;27;20040;-39
2023/08/28 01:34:30;;;;;;;2.50;0.70;;;14.30;99.90;;;;;;5135862;27;20476;-40
2023/08/28 01:37:00;;;;;;;1.75;0.68;;;14.30;99.90;;;;;;5136485;27;20051;-39
2023/08/28 01:39:45;;;;;;;1.65;0.70;;;14.30;99.90;;;;;;5136114;27;20047;-39
2023/08/28 01:42:12;;;;;;;2.88;0.95;;;14.30;99.90;;;;;;5135871;27;20136;-39
2023/08/28 01:44:39;;;;;;;1.70;0.90;;;14.30;99.90;;;;;;5117638;27;20047;-39
2023/08/28 01:47:05;;;;;;;3.80;0.90;;;14.30;99.90;;;;;;5135549;27;20042;-39
2023/08/28 01:49:33;;;;;;;2.38;1.08;;;14.30;99.90;;;;;;5135699;27;20502;-39
2023/08/28 01:51:58;;;;;;;1.70;0.75;;;14.20;99.90;;;;;;5135646;27;20108;-39
2023/08/28 01:54:24;;;;;;;2.10;0.90;;;14.20;99.90;;;;;;5135439;27;20046;-39
2023/08/28 01:56:50;;;;;;;2.40;0.95;;;14.20;99.90;;;;;;5117159;27;20297;-39
2023/08/28 01:59:16;;;;;;;2.40;1.17;;;14.10;99.90;;;;;;5135474;27;20047;-39
2023/08/28 02:01:42;;;;;;;1.67;0.80;;;14.10;99.90;;;;;;5135122;27;20051;-39
2023/08/28 02:04:07;;;;;;;2.00;0.85;;;14.10;99.90;;;;;;5135458;27;20387;-39
2023/08/28 02:06:33;;;;;;;3.30;1.17;;;14.10;99.90;;;;;;5135891;27;20534;-39
2023/08/28 02:08:59;;;;;;;2.30;0.70;;;14.00;99.90;;;;;;5135378;27;20529;-39
2023/08/28 02:11:25;;;;;;;3.25;0.80;;;14.00;99.90;;;;;;5135238;27;20641;-39
2023/08/28 02:13:50;;;;;;;1.73;0.90;;;14.00;99.90;;;;;;5135205;27;20050;-39
2023/08/28 02:16:19;;;;;;;1.63;0.77;;;14.00;99.90;;;;;;5134926;27;20485;-39
2023/08/28 02:18:45;;;;;;;1.67;0.95;;;14.00;99.90;;;;;;5135507;27;20050;-39
2023/08/28 02:21:11;;;;;;;3.90;1.10;;;13.90;99.90;;;;;;5135166;27;20054;-39
2023/08/28 02:23:36;;;;;;;2.13;0.93;;;13.90;99.90;;;;;;5135161;27;20068;-39
2023/08/28 02:26:02;;;;;;;2.43;1.03;;;13.90;99.90;;;;;;5134936;27;20130;-39
2023/08/28 02:28:27;;;;;;;3.83;1.50;;;13.90;99.90;;;;;;5134962;27;20280;-39
2023/08/28 02:30:56;;;;;;;2.37;0.90;;;13.90;99.90;;;;;;5134901;27;20043;-39
2023/08/28 02:33:21;;;;;;;3.00;1.10;;;13.80;99.90;;;;;;5134726;27;20471;-39
2023/08/28 02:35:47;;;;;;;2.00;0.90;;;13.80;99.90;;;;;;5134885;27;20062;-39
2023/08/28 02:38:13;;;;;;;1.63;0.70;;;13.80;99.90;;;;;;5134464;27;20042;-39
2023/08/28 02:40:39;;;;;;;1.85;0.98;;;13.80;99.90;;;;;;5134293;27;20445;-39
2023/08/28 02:43:05;;;;;;;2.35;0.90;;;13.80;99.90;;;;;;5134678;27;20134;-39
2023/08/28 02:45:35;;;;;;;1.27;0.63;;;13.70;99.90;;;;;;5134765;27;20061;-39
2023/08/28 02:48:01;;;;;;;3.22;0.98;;;13.70;99.90;;;;;;5134673;27;20037;-39
2023/08/28 02:50:27;;;;;;;1.70;0.80;;;13.70;99.90;;;;;;5134787;27;20047;-39
2023/08/28 02:52:53;;;;;;;1.83;0.70;;;13.70;99.90;;;;;;5134828;27;20437;-39
2023/08/28 02:55:18;;;;;;;1.50;0.73;;;13.70;99.90;;;;;;5134538;28;20126;-39
2023/08/28 02:57:44;;;;;;;3.70;0.73;;;13.70;99.90;;;;;;5134449;28;20409;-39
2023/08/28 03:00:11;;;;;;;2.57;0.80;;;13.70;99.90;;;;;;5134662;28;20407;-39
2023/08/28 03:02:36;;;;;;;;;;;13.70;99.90;;;;;;5135002;28;20051;-39
2023/08/28 03:05:02;;;;;;;1.92;0.95;;;13.70;99.90;;;;;;5134514;28;19944;-39
2023/08/28 03:07:27;;;;;;;2.93;0.93;;;13.70;99.90;;;;;;5134489;28;20039;-39
2023/08/28 03:09:54;;;;;;;1.93;1.00;;;13.70;99.90;;;;;;5134549;28;20629;-39
2023/08/28 03:12:19;;;;;;;3.00;0.90;;;13.70;99.90;;;;;;5134202;28;20039;-40
2023/08/28 03:14:45;;;;;;;1.57;0.77;;;13.70;99.90;;;;;;5134734;28;20435;-39
2023/08/28 03:17:11;;;;;;;1.88;0.80;;;13.70;99.90;;;;;;5134766;28;20396;-39
2023/08/28 03:19:36;;;;;;;2.03;0.73;;;13.80;99.90;;;;;;5134371;28;20475;-39
2023/08/28 03:22:02;;;;;;;1.30;0.60;;;13.80;99.90;;;;;;5134531;28;20766;-39
2023/08/28 03:24:28;;;;;;;1.70;0.70;;;13.70;99.90;;;;;;5134411;28;20467;-39
2023/08/28 03:26:53;;;;;;;1.17;0.60;;;13.70;99.90;;;;;;5134218;28;20039;-39
2023/08/28 03:29:19;;;;;;;0.97;0.50;;;13.70;99.90;;;;;;5134211;28;20054;-39
2023/08/28 03:31:44;;;;;;;3.43;0.60;;;13.70;99.90;;;;;;5134335;28;20090;-39
2023/08/28 03:34:10;;;;;;;1.57;0.60;;;13.70;99.90;;;;;;5134400;28;20085;-39
2023/08/28 03:36:36;;;;;;;1.33;0.60;;;13.70;99.90;;;;;;5098972;28;20047;-39
2023/08/28 03:39:02;;;;;;;1.93;0.60;;;13.70;99.90;;;;;;5134073;28;20047;-39
2023/08/28 03:41:27;;;;;;;0.93;0.50;;;13.80;99.90;;;;;;5134282;28;20103;-39
2023/08/28 03:43:53;;;;;;;0.93;0.40;;;13.70;99.90;;;;;;5134050;28;20512;-39
2023/08/28 03:46:19;;;;;;;1.97;0.80;;;13.80;99.90;;;;;;5134223;28;20426;-39
2023/08/28 03:48:45;;;;;;;1.47;0.60;;;13.80;99.90;;;;;;5134047;28;20059;-39
2023/08/28 03:51:10;;;;;;;1.80;0.70;;;13.70;99.90;;;;;;5136920;27;20372;-39
2023/08/28 03:53:37;;;;;;;1.37;0.60;;;13.70;99.90;;;;;;5138027;27;20039;-39
2023/08/28 03:56:03;;;;;;;1.73;0.82;;;13.70;99.90;;;;;;5137948;27;20062;-39
2023/08/28 03:58:29;;;;;;;2.95;0.63;;;13.70;99.90;;;;;;5137591;27;20100;-39
2023/08/28 04:00:55;;;;;;;1.50;0.70;;;13.80;99.90;;;;;;5138341;27;20050;-39
2023/08/28 04:03:20;;;;;;;3.00;0.90;;;13.70;99.90;;;;;;5137811;27;20395;-39
2023/08/28 04:05:48;;;;;;;2.17;0.77;;;13.70;99.90;;;;;;5119510;27;20043;-39
2023/08/28 04:08:15;;;;;;;1.30;0.65;;;13.70;99.90;;;;;;5119601;27;20464;-39
2023/08/28 04:10:40;;;;;;;;;;;13.70;99.90;;;;;;5138174;27;20089;-39
2023/08/28 04:13:06;;;;;;;1.95;0.63;;;13.70;99.90;;;;;;5137287;27;19970;-39
2023/08/28 04:15:33;;;;;;;1.73;0.73;;;13.70;99.90;;;;;;5137557;27;20130;-39
2023/08/28 04:17:59;;;;;;;;;;;13.70;99.90;;;;;;5137813;27;20039;-39
2023/08/28 04:20:25;;;;;;;1.83;0.75;;;13.70;99.90;;;;;;5137431;27;19919;-39
2023/08/28 04:22:51;;;;;;;1.75;0.70;;;13.70;99.90;;;;;;5137508;27;20043;-39
2023/08/28 04:25:16;;;;;;;1.83;1.37;;;13.60;99.90;;;;;;5137401;27;20042;-39
2023/08/28 04:27:42;;;;;;;2.90;1.10;;;13.60;99.90;;;;;;5137054;27;20035;-40
2023/08/28 04:30:09;;;;;;;1.87;0.90;;;13.50;99.90;;;;;;5137563;27;20047;-40
2023/08/28 04:32:36;;;;;;;1.70;0.68;;;13.60;99.90;;;;;;5137298;27;20493;-39
2023/08/28 04:35:02;;;;;;;;;;;13.60;99.90;;;;;;5137555;27;20068;-39
2023/08/28 04:37:27;;;;;;;2.58;1.00;;;13.60;99.90;;;;;;5137183;27;19974;-39
2023/08/28 04:39:53;;;;;;;1.97;0.80;;;13.50;99.90;;;;;;5137102;27;20155;-39
2023/08/28 04:42:19;;;;;;;2.42;1.10;;;13.50;99.90;;;;;;5118773;27;20285;-39
2023/08/28 04:44:45;;;;;;;2.15;0.90;;;13.50;99.90;;;;;;5136633;27;20514;-39
2023/08/28 04:47:13;;;;;;;3.15;0.88;;;13.50;99.90;;;;;;5137012;27;20043;-39
2023/08/28 04:49:39;;;;;;;2.50;0.90;;;13.50;99.90;;;;;;5118480;27;20052;-39
2023/08/28 04:52:05;;;;;;;3.83;0.95;;;13.50;99.90;;;;;;5136648;27;20051;-39
2023/08/28 04:54:31;;;;;;;2.30;0.98;;;13.50;99.90;;;;;;5136642;27;20088;-40
2023/08/28 04:56:58;;;;;;;1.70;0.70;;;13.50;99.90;;;;;;5136711;27;20125;-39
2023/08/28 04:59:24;;;;;;;1.67;0.77;;;13.50;99.90;;;;;;5136477;27;20476;-39
2023/08/28 05:01:49;;;;;;;1.85;0.80;;;13.50;99.90;;;;;;5136067;27;20039;-39
2023/08/28 05:04:15;;;;;;;2.13;0.80;;;13.40;99.90;;;;;;5118490;27;20104;-39
2023/08/28 05:06:41;;;;;;;2.17;0.80;;;13.40;99.90;;;;;;5136504;27;20043;-39
2023/08/28 05:09:06;;;;;;;1.73;0.80;;;13.50;99.90;;;;;;5136365;27;20043;-40
2023/08/28 05:11:32;;;;;;;2.23;1.00;;;13.50;99.90;;;;;;5136414;27;20043;-39
2023/08/28 05:13:58;;;;;;;1.43;0.73;;;13.50;99.90;;;;;;5136439;27;20043;-39
2023/08/28 05:16:24;;;;;;;2.30;0.80;;;13.50;99.90;;;;;;5136254;27;20296;-39
2023/08/28 05:18:49;;;;;;;1.65;0.98;;;13.50;99.90;;;;;;5136222;27;20043;-39
2023/08/28 05:21:15;;;;;;;1.93;1.00;;;13.50;99.90;;;;;;5136031;27;20065;-39
2023/08/28 05:23:41;;;;;;;2.37;1.10;;;13.50;99.90;;;;;;5136234;27;20130;-39
2023/08/28 05:26:07;;;;;;;1.83;0.82;;;13.60;99.90;;;;;;5136075;27;20045;-39
2023/08/28 05:28:35;;;;;;;1.40;0.70;;;13.60;99.90;;;;;;5136150;27;20121;-39
2023/08/28 05:31:02;;;;;;;1.95;0.80;;;13.60;99.90;;;;;;5136166;27;20057;-39
2023/08/28 05:33:28;;;;;;;1.80;0.70;;;13.60;99.90;;;;;;5135977;27;20039;-39
2023/08/28 05:35:53;;;;;;;3.45;0.90;;;13.60;99.90;;;;;;5135985;27;20051;-39
2023/08/28 05:38:20;;;;;;;1.80;0.80;;;13.70;99.90;;;;;;5135666;27;20380;-40
2023/08/28 05:40:46;;;;;;;1.77;0.70;;;13.70;99.90;;;;;;5117628;27;20141;-39
2023/08/28 05:43:11;;;;;;;1.42;0.55;;;13.70;99.90;;;;;;5135837;27;20103;-39
2023/08/28 05:45:37;;;;;;;2.10;0.80;;;13.80;99.90;;;;;;5135758;27;20047;-40
2023/08/28 05:48:04;;;;;;;1.85;0.90;;;13.80;99.90;;;;;;5135598;27;20043;-39
2023/08/28 05:50:29;;;;;;;2.63;0.77;;;13.80;99.90;;;;;;5135639;27;20104;-39
2023/08/28 05:52:56;;;;;;;2.75;0.88;;;13.90;99.90;;;;;;5135352;27;20051;-40
2023/08/28 05:55:22;;;;;;;2.00;0.73;;;13.90;99.90;;;;;;5135294;27;20039;-39
2023/08/28 05:57:47;;;;;;;1.55;0.80;;;13.90;99.90;;;;;;5135507;27;20046;-39
2023/08/28 06:00:14;;;;;;;1.90;0.83;;;14.00;99.90;;;;;;5135495;27;20130;-39
2023/08/28 06:02:40;;;;;;;;;;;14.00;99.90;;;;;;5135835;27;20287;-39
2023/08/28 06:05:06;;;;;;;1.90;0.80;;;14.10;99.90;;;;;;5135191;27;19931;-40
2023/08/28 06:07:32;;;;;;;;;;;14.10;99.90;;;;;;5135720;27;20148;-40
2023/08/28 06:09:58;;;;;;;1.83;0.77;;;14.20;99.90;;;;;;5151302;27;19955;-40
2023/08/28 06:12:24;;;;;;;1.73;0.90;;;14.30;99.90;;;;;;5135278;27;20042;-40
2023/08/28 06:14:50;;;;;;;1.75;0.70;;;14.40;99.90;;;;;;5134347;27;20047;-40
2023/08/28 06:17:16;;;;;;;2.75;0.60;;;14.40;99.90;;;;;;5135105;27;20126;-40
2023/08/28 06:19:42;;;;;;;1.38;0.75;;;14.50;99.90;;;;;;5116882;27;20130;-39
2023/08/28 06:22:08;;;;;;;1.50;0.70;;;14.60;99.90;;;;;;5135138;27;20398;-40
2023/08/28 06:24:33;;;;;;;2.60;0.90;;;14.70;99.90;;;;;;5134819;27;20087;-39
2023/08/28 06:26:59;;;;;;;1.87;0.80;;;14.90;99.90;;;;;;5134832;27;20056;-40
2023/08/28 06:29:25;;;;;;;2.20;0.80;;;15.10;99.90;;;;;;5135028;27;20058;-40
2023/08/28 06:31:51;;;;;;;1.58;0.90;;;15.20;99.90;;;;;;5134952;27;20636;-39
2023/08/28 06:34:17;;;;;;;1.48;0.80;;;15.20;99.90;;;;;;5134901;27;20039;-40
2023/08/28 06:36:42;;;;;;;1.83;0.90;;;15.30;99.90;;;;;;5134771;27;20035;-40
2023/08/28 06:39:08;;;;;;;3.70;0.70;;;15.30;99.90;;;;;;5116509;27;20134;-40
2023/08/28 06:41:34;;;;;;;1.77;1.00;;;15.30;99.90;;;;;;5135064;27;20432;-40
2023/08/28 06:44:00;;;;;;;3.08;0.82;;;15.30;99.90;;;;;;5116675;27;20058;-40
2023/08/28 06:46:26;;;;;;;1.98;0.68;;;15.30;99.90;;;;;;5134823;27;20050;-40
2023/08/28 06:48:53;;;;;;;3.05;0.90;;;15.30;99.90;;;;;;5134745;27;20069;-40
2023/08/28 06:51:21;;;;;;;2.17;1.00;;;15.30;99.90;;;;;;5134752;27;20047;-40
2023/08/28 06:53:48;;;;;;;1.95;0.95;;;15.30;99.90;;;;;;5134668;27;20039;-40
2023/08/28 06:56:14;;;;;;;3.08;0.95;;;15.30;99.90;;;;;;5134790;27;20047;-39
2023/08/28 06:58:39;;;;;;;3.03;0.93;;;15.40;99.90;;;;;;5134935;28;20069;-40
2023/08/28 07:01:05;;;;;;;1.73;0.80;;;15.40;99.90;;;;;;5134489;28;20469;-39
2023/08/28 07:03:31;;;;;;;3.80;0.90;;;15.40;99.90;;;;;;5116658;28;20047;-40
2023/08/28 07:05:56;;;;;;;1.27;0.60;;;15.40;99.90;;;;;;5134358;28;20047;-40
2023/08/28 07:08:22;;;;;;;2.17;1.00;;;15.50;99.90;;;;;;5134522;28;20273;-40
2023/08/28 07:10:48;;;;;;;2.03;0.95;;;15.50;99.90;;;;;;5134457;28;20039;-39
2023/08/28 07:13:13;;;;;;;3.47;0.90;;;15.60;99.90;;;;;;5116248;28;20039;-40
2023/08/28 07:15:41;;;;;;;1.87;0.80;;;15.50;99.90;;;;;;5134502;28;20047;-40
2023/08/28 07:18:07;;;;;;;2.20;0.90;;;15.60;99.90;;;;;;5134376;28;20330;-39
2023/08/28 07:20:34;;;;;;;2.53;0.80;;;15.60;99.90;;;;;;5099449;28;20047;-40
2023/08/28 07:22:59;;;;;;;;;;;15.70;99.90;;;;;;5134908;28;20059;-39
2023/08/28 07:25:25;;;;;;;2.13;0.90;;;15.60;99.90;;;;;;5135792;27;20379;-40
2023/08/28 07:27:51;;;;;;;3.05;0.85;;;15.70;99.90;;;;;;5138448;27;20047;-40
2023/08/28 07:30:18;;;;;;;2.60;0.90;;;15.70;99.90;;;;;;5138367;27;20139;-39
2023/08/28 07:32:43;;;;;;;1.50;0.80;;;15.80;99.90;;;;;;5138230;27;20043;-40
2023/08/28 07:35:09;;;;;;;3.50;1.27;;;15.80;99.90;;;;;;5138162;27;20035;-40
2023/08/28 07:37:36;;;;;;;4.43;1.05;;;15.90;99.90;;;;;;5138021;27;20430;-40
2023/08/28 07:40:04;;;;;;;2.15;1.10;;;15.90;99.90;;;;;;5138670;27;20086;-39
2023/08/28 07:42:29;;;;;;;2.30;1.10;;;16.00;99.90;;;;;;5138200;27;20125;-40
2023/08/28 07:44:55;;;;;;;2.80;1.13;;;16.10;99.90;;;;;;5119896;27;20055;-39
2023/08/28 07:47:21;;;;;;;5.43;1.00;;;16.10;99.90;;;;;;5138014;27;20043;-40
2023/08/28 07:49:47;;;;;;;1.70;0.70;;;16.10;99.90;;;;;;5137575;27;20059;-40
2023/08/28 07:52:13;;;;;;;2.58;0.88;;;16.20;99.90;;;;;;5138441;27;20051;-40
2023/08/28 07:54:38;;;;;;;2.42;0.98;;;16.20;99.90;;;;;;5137990;27;20455;-40
2023/08/28 07:57:04;;;;;;;1.50;0.70;;;16.30;99.90;;;;;;5137762;27;20073;-40
2023/08/28 07:59:30;;;;;;;2.15;0.98;;;16.30;99.90;;;;;;5138009;27;20290;-40
2023/08/28 08:01:59;;;;;;;2.00;0.90;;;16.40;99.90;;;;;;5119421;27;20051;-40
2023/08/28 08:04:26;;;;;;;1.95;0.90;;;16.40;99.90;;;;;;5137440;27;20530;-40
2023/08/28 08:06:51;;;;;;;;;;;16.50;99.90;;;;;;5137883;27;20556;-39
2023/08/28 08:09:17;;;;;;;1.65;0.80;;;16.50;99.90;;;;;;5137882;27;19919;-39
2023/08/28 08:11:43;;;;;;;2.08;0.70;;;16.50;99.90;;;;;;5119731;27;20487;-40
2023/08/28 08:14:09;;;;;;;2.95;0.77;;;16.60;99.90;;;;;;5137584;27;20043;-40
2023/08/28 08:16:35;;;;;;;2.22;0.70;;;16.60;99.90;;;;;;5137469;27;20043;-40
2023/08/28 08:19:01;;;;;;;1.90;0.50;;;16.60;99.90;;;;;;5137400;27;20050;-40
2023/08/28 08:21:26;;;;;;;2.00;0.60;;;16.60;99.90;;;;;;5137241;27;20050;-40
2023/08/28 08:23:52;;;;;;;1.90;0.70;;;16.70;99.90;;;;;;5137567;27;20047;-40
2023/08/28 08:26:18;;;;;;;1.02;0.52;;;16.70;99.90;;;;;;5137802;27;20497;-40
2023/08/28 08:28:44;;;;;;;1.52;0.60;;;16.70;99.90;;;;;;5137519;27;20047;-40
2023/08/28 08:31:10;;;;;;;1.92;0.68;;;16.70;99.90;;;;;;5137202;27;20421;-40
2023/08/28 08:33:36;;;;;;;1.85;0.40;;;16.80;99.90;;;;;;5137170;27;20047;-40
2023/08/28 08:36:01;;;;;;;0.85;0.40;;;16.80;99.90;;;;;;5118851;27;20047;-40
2023/08/28 08:38:27;;;;;;;0.65;0.20;;;16.90;99.90;;;;;;5136171;27;20053;-44
2023/08/28 08:40:58;;;;;;;2.58;0.30;;;17.00;99.90;;;;;;5137113;27;20113;-43
2023/08/28 08:43:25;;;;;;;1.10;0.30;;;17.10;99.90;;;;;;5136967;27;20491;-44
2023/08/28 08:45:58;;;;;;;1.58;0.30;;;17.10;99.90;;;;;;5136917;27;20043;-44
2023/08/28 08:48:25;;;;;;;0.73;0.30;;;17.20;99.90;;;;;;5136547;27;20126;-44
2023/08/28 08:50:54;;;;;;;0.70;0.30;;;17.30;99.90;;;;;;5149069;27;20503;-44
2023/08/28 08:53:32;;;;;;;0.50;0.20;;;17.30;99.90;;;;;;5116321;28;20043;-44
2023/08/28 08:56:01;;;;;;;1.58;0.30;;;17.40;99.90;;;;;;5116273;28;20048;-44
2023/08/28 08:58:27;;;;;;;0.68;0.30;;;17.40;99.90;;;;;;5116085;28;20044;-40
2023/08/28 09:00:54;;;;;;;1.05;0.30;;;17.40;99.90;;;;;;5115946;28;20049;-40
2023/08/28 09:03:21;;;;;;;;;;;17.50;99.90;;;;;;5116666;28;20381;-40
2023/08/28 09:05:49;;;;;;;0.82;0.30;;;17.50;99.90;;;;;;5116108;28;19920;-40
2023/08/28 09:08:15;;;;;;;1.05;0.30;;;17.60;99.90;;;;;;5115934;28;20046;-40
2023/08/28 09:10:43;;;;;;;;;;;17.60;99.90;;;;;;5116375;28;20050;-41
2023/08/28 09:13:09;;;;;;;0.77;0.30;;;17.60;99.90;;;;;;5115804;28;20376;-40
2023/08/28 09:15:35;;;;;;;0.57;0.20;;;17.60;99.90;;;;;;5115802;28;20054;-41
2023/08/28 09:18:01;;;;;;;0.47;0.30;;;17.60;99.90;;;;;;5115793;28;20079;-40
2023/08/28 09:20:27;;;;;;;1.40;0.35;;;17.50;99.90;;;;;;5115862;28;20047;-40
2023/08/28 09:22:54;;;;;;;0.80;0.35;;;17.40;99.90;;;;;;5115741;28;20116;-40
2023/08/28 09:25:22;;;;;;;1.85;0.30;;;17.40;99.90;;;;;;5115717;28;20123;-40
2023/08/28 09:27:50;;;;;;;1.48;0.20;;;17.50;99.90;;;;;;5115482;28;20040;-40
2023/08/28 09:30:31;;;;;;;0.80;0.25;;;17.50;99.90;;;;;;5115578;28;20067;-40
2023/08/28 09:32:58;;;;;;;2.50;0.30;;;17.50;99.90;;;;;;5115703;28;20047;-40
2023/08/28 09:35:28;;;;;;;1.10;0.30;;;17.60;99.90;;;;;;5115426;28;20052;-40
2023/08/28 09:37:58;;;;;;;1.17;0.20;;;17.60;99.90;;;;;;5115305;28;20043;-40
2023/08/28 09:40:30;;;;;;;1.50;0.50;;;17.70;99.90;;;;;;5115356;28;20076;-40
2023/08/28 09:42:57;;;;;;;5.40;0.63;;;17.80;99.90;;;;;;5115451;28;20047;-40
2023/08/28 09:45:23;;;;;;;1.17;0.30;;;17.80;99.90;;;;;;5115242;28;20089;-40
2023/08/28 09:47:53;;;;;;;0.70;0.25;;;17.80;99.90;;;;;;5115290;28;20071;-40
2023/08/28 09:50:28;;;;;;;1.10;0.47;;;17.70;99.90;;;;;;5125043;27;20400;-40
2023/08/28 09:52:54;;;;;;;1.63;0.65;;;17.70;99.90;;;;;;5135402;27;20055;-40
2023/08/28 09:55:20;;;;;;;2.10;0.35;;;17.50;99.90;;;;;;5117243;27;20055;-40
2023/08/28 09:57:46;;;;;;;;;;;17.40;99.90;;;;;;5135869;27;20043;-40
2023/08/28 10:00:13;;;;;;;2.03;0.55;;;17.40;99.90;;;;;;5135517;27;19919;-40
2023/08/28 10:02:39;;;;;;;1.63;0.45;;;17.30;99.90;;;;;;5117384;27;20047;-40
2023/08/28 10:05:10;;;;;;;1.08;0.40;;;17.20;99.90;;;;;;5135410;27;20039;-40
2023/08/28 10:07:39;;;;;;;0.70;0.30;;;17.20;99.90;;;;;;5135492;27;20125;-40
2023/08/28 10:10:06;;;;;;;2.30;0.40;;;17.20;99.90;;;;;;5135387;27;20395;-40
2023/08/28 10:12:34;;;;;;;2.53;0.50;;;17.20;99.90;;;;;;5135360;27;20047;-40
2023/08/28 10:15:03;;;;;;;1.52;0.45;;;17.20;99.90;;;;;;5135475;27;20058;-40
2023/08/28 10:17:31;;;;;;;0.85;0.40;;;17.20;99.90;;;;;;5135234;27;20391;-40
2023/08/28 10:20:03;;;;;;;1.00;0.40;;;17.20;99.90;;;;;;5135003;27;20070;-40
2023/08/28 10:22:33;;;;;;;1.13;0.30;;;17.20;99.90;;;;;;5117059;27;20043;-40
2023/08/28 10:24:59;;;;;;;0.80;0.40;;;17.30;99.90;;;;;;5135082;27;20043;-40
2023/08/28 10:27:26;;;;;;;0.90;0.30;;;17.40;99.90;;;;;;5135099;27;20035;-40
2023/08/28 10:29:53;;;;;;;1.80;0.45;;;17.50;99.90;;;;;;5134962;27;20043;-40
2023/08/28 10:32:20;;;;;;;0.70;0.25;;;17.60;99.90;;;;;;5135055;27;20047;-40
2023/08/28 10:34:47;;;;;;;0.80;0.40;;;17.60;99.90;;;;;;5134845;27;20152;-40
2023/08/28 10:37:13;;;;;;;1.42;0.50;;;17.70;99.90;;;;;;5135348;27;20047;-40
2023/08/28 10:39:43;;;;;;;1.70;0.30;;;17.70;99.90;;;;;;5134863;27;20051;-40
2023/08/28 10:42:11;;;;;;;0.95;0.52;;;17.80;99.90;;;;;;5134617;27;20376;-40
2023/08/28 10:44:38;;;;;;;0.50;0.30;;;17.90;99.90;;;;;;5134707;27;20043;-40
2023/08/28 10:47:05;;;;;;;1.33;0.40;;;17.90;99.90;;;;;;5134762;27;20133;-40
2023/08/28 10:49:33;;;;;;;0.70;0.30;;;18.00;99.90;;;;;;5134294;27;20055;-41
2023/08/28 10:52:06;;;;;;;3.75;0.50;;;18.10;99.90;;;;;;5116685;27;20494;-40
2023/08/28 10:54:39;;;;;;;1.52;0.30;;;18.10;99.90;;;;;;5134695;27;20078;-40
2023/08/28 10:57:13;;;;;;;1.00;0.40;;;18.10;99.90;;;;;;5134601;27;20043;-40
2023/08/28 10:59:45;;;;;;;1.98;0.40;;;18.10;99.90;;;;;;5134029;27;20126;-41
2023/08/28 11:02:12;;;;;;;1.00;0.38;;;18.10;99.90;;;;;;5134628;28;20082;-40
2023/08/28 11:04:39;;;;;;;1.95;0.28;;;18.10;99.90;;;;;;5134572;28;20100;-40
2023/08/28 11:07:25;;;;;;;1.52;0.40;;;18.20;99.90;;;;;;5134577;28;20391;-40
2023/08/28 11:10:15;;;;;;;1.33;0.40;;;18.30;99.90;;;;;;5134483;28;20403;-40
2023/08/28 11:12:55;;;;;;;1.17;0.32;;;18.40;99.90;;;;;;5134524;28;20073;-41
2023/08/28 11:15:33;;;;;;;0.75;0.28;;;18.40;99.90;;;;;;5134211;28;20437;-40
2023/08/28 11:18:19;;;;;;;1.40;0.50;;;18.40;99.90;;;;;;5134446;28;20046;-40
2023/08/28 11:20:56;;;;;;;0.98;0.40;;;18.30;99.90;;;;;;5115870;28;20050;-40
2023/08/28 11:23:33;;;;;;;0.75;0.30;;;18.20;99.90;;;;;;5134483;28;20130;-40
2023/08/28 11:26:02;;;;;;;1.65;0.50;;;18.10;99.90;;;;;;5134273;28;20453;-40
2023/08/28 11:28:30;;;;;;;1.67;0.43;;;18.10;99.90;;;;;;5134406;28;20043;-40
2023/08/28 11:31:04;;;;;;;1.67;0.43;;;18.00;99.90;;;;;;5134115;28;20380;-40
2023/08/28 11:33:44;;;;;;;0.88;0.40;;;17.90;99.90;;;;;;5134373;28;20044;-40
2023/08/28 11:36:14;;;;;;;1.42;0.47;;;17.80;99.90;;;;;;5116767;28;20046;-40
2023/08/28 11:38:41;;;;;;;0.77;0.50;;;17.80;99.90;;;;;;5134312;28;20522;-40
2023/08/28 11:41:10;;;;;;;1.25;0.40;;;17.70;99.90;;;;;;5116162;28;20066;-40
2023/08/28 11:43:42;;;;;;;2.13;0.38;;;17.70;99.90;;;;;;5133997;28;20055;-40
2023/08/28 11:46:10;;;;;;;1.95;0.40;;;17.60;99.90;;;;;;5134533;28;20047;-40
2023/08/28 11:48:42;;;;;;;0.82;0.30;;;17.70;99.90;;;;;;5134146;28;20086;-40
2023/08/28 11:51:09;;;;;;;2.70;0.40;;;17.60;99.90;;;;;;5133837;28;20051;-40
2023/08/28 11:53:37;;;;;;;0.73;0.32;;;17.60;99.90;;;;;;5134187;28;20069;-40
2023/08/28 11:56:05;;;;;;;1.27;0.30;;;17.60;99.90;;;;;;5115857;28;20047;-40
2023/08/28 11:58:33;;;;;;;1.83;0.38;;;17.70;99.90;;;;;;5134008;28;20054;-40
2023/08/28 12:01:07;;;;;;;0.57;0.30;;;17.70;99.90;;;;;;5134087;28;20058;-40
2023/08/28 12:03:36;;;;;;;1.05;0.40;;;17.70;99.90;;;;;;5134045;28;20054;-40
2023/08/28 12:06:07;;;;;;;0.43;0.30;;;17.70;99.90;;;;;;5134101;28;20047;-40
2023/08/28 12:08:42;;;;;;;0.68;0.30;;;17.70;99.90;;;;;;5133936;28;20506;-40
2023/08/28 12:11:10;;;;;;;0.60;0.40;;;17.70;99.90;;;;;;5133988;27;20101;-40
2023/08/28 12:13:37;;;;;;;0.25;0.20;;;17.70;99.90;;;;;;5136769;27;20522;-40
2023/08/28 12:16:17;;;;;;;1.10;0.32;;;17.70;99.90;;;;;;5137557;27;20126;-40
2023/08/28 12:18:51;;;;;;;2.47;0.30;;;17.70;99.90;;;;;;5137634;27;20184;-40
2023/08/28 12:21:19;;;;;;;1.63;0.32;;;17.80;99.90;;;;;;5137196;27;20125;-40
2023/08/28 12:23:51;;;;;;;1.10;0.30;;;17.80;99.90;;;;;;5119185;27;20088;-40
2023/08/28 12:26:18;;;;;;;0.93;0.30;;;17.80;99.90;;;;;;5137462;27;20051;-40
2023/08/28 12:28:45;;;;;;;0.52;0.20;;;17.80;99.90;;;;;;5119136;27;20051;-40
2023/08/28 12:31:10;;;;;;;0.93;0.40;;;17.90;99.90;;;;;;5137349;27;20050;-40
2023/08/28 12:33:40;;;;;;;2.75;0.40;;;17.90;99.90;;;;;;5137180;27;20054;-40
2023/08/28 12:36:06;;;;;;;0.98;0.30;;;17.90;99.90;;;;;;5137183;27;20051;-41
2023/08/28 12:38:52;;;;;;;2.03;1.15;;;18.00;99.90;;;;;;5137060;27;20088;-40
2023/08/28 12:41:18;;;;;;;1.38;0.30;;;18.00;99.90;;;;;;5137330;27;20089;-40
2023/08/28 12:43:45;;;;;;;0.20;0.20;;;18.00;99.90;;;;;;5136984;27;20468;-40
2023/08/28 12:46:15;;;;;;;1.00;0.40;;;18.10;99.90;;;;;;5136828;27;20047;-40
2023/08/28 12:48:43;;;;;;;0.77;0.30;;;18.20;99.90;;;;;;5153280;27;20046;-40
2023/08/28 12:51:09;;;;;;;1.45;0.47;;;18.30;99.90;;;;;;5118466;27;20059;-40
2023/08/28 12:53:34;;;;;;;1.77;0.43;;;18.30;99.90;;;;;;5137144;27;20039;-40